Time;durP1;ratioP1;P1;durP2;ratioP2;P2;SDS_P1;SDS_P2;PMS_P1;PMS_P2;Temp;Humidity;BMP_temperature;BMP_pressure;BME280_temperature;BME280_humidity;BME280_pressure;Samples;Min_cycle;Max_cycle;Signal;HPM_P1;HPM_P2
2022/08/07 00:00:12;;;;;;;2.63;1.90;;;;;;;12.68;62.49;100233.78;5075771;28;20106;-55
2022/08/07 00:02:37;;;;;;;3.88;2.30;;;;;;;12.69;62.80;100229.22;5075386;28;20483;-56
2022/08/07 00:05:03;;;;;;;3.65;1.90;;;;;;;12.73;62.24;100225.84;5073621;28;20032;-55
2022/08/07 00:07:28;;;;;;;5.13;2.20;;;;;;;12.88;61.65;100224.53;5073865;28;20035;-55
2022/08/07 00:09:53;;;;;;;6.28;2.13;;;;;;;12.66;62.56;100224.31;5075966;28;20410;-55
2022/08/07 00:12:19;;;;;;;4.15;2.15;;;;;;;12.72;63.22;100224.19;5075284;28;20475;-55
2022/08/07 00:14:44;;;;;;;4.72;2.10;;;;;;;12.68;63.93;100223.03;5075436;28;20079;-57
2022/08/07 00:17:10;;;;;;;5.55;2.10;;;;;;;12.55;63.29;100223.22;5075258;28;20055;-56
2022/08/07 00:19:35;;;;;;;4.35;2.05;;;;;;;12.67;62.58;100224.06;5074747;28;20383;-55
2022/08/07 00:22:01;;;;;;;2.47;1.88;;;;;;;12.60;63.66;100226.03;5075068;28;20039;-56
2022/08/07 00:24:26;;;;;;;2.80;1.95;;;;;;;12.74;63.98;100221.28;5075374;28;20047;-55
2022/08/07 00:26:51;;;;;;;4.13;2.00;;;;;;;12.63;64.07;100209.47;5075080;28;20027;-55
2022/08/07 00:29:18;;;;;;;3.75;2.03;;;;;;;12.62;64.06;100207.00;5075122;28;20082;-55
2022/08/07 00:31:44;;;;;;;2.67;1.90;;;;;;;12.63;63.06;100205.91;5074757;28;20627;-55
2022/08/07 00:34:09;;;;;;;3.95;2.00;;;;;;;12.47;64.38;100210.13;5074413;28;20052;-55
2022/08/07 00:36:35;;;;;;;2.70;1.70;;;;;;;12.42;64.49;100210.00;5074918;28;20052;-55
2022/08/07 00:39:01;;;;;;;2.25;1.80;;;;;;;12.37;64.92;100215.25;5074341;28;20513;-54
2022/08/07 00:41:30;;;;;;;4.85;1.90;;;;;;;12.33;64.81;100203.28;5075002;28;20029;-54
2022/08/07 00:43:55;;;;;;;2.58;1.90;;;;;;;12.36;64.67;100205.56;5073399;28;20109;-55
2022/08/07 00:46:20;;;;;;;5.45;1.80;;;;;;;12.48;65.13;100203.69;5074743;28;20083;-55
2022/08/07 00:48:46;;;;;;;3.63;1.90;;;;;;;12.26;65.45;100198.84;5074338;28;20039;-54
2022/08/07 00:51:12;;;;;;;3.75;1.92;;;;;;;12.21;64.29;100196.03;5074457;28;20090;-54
2022/08/07 00:53:37;;;;;;;3.70;2.05;;;;;;;12.16;65.95;100200.47;5056211;28;20045;-55
2022/08/07 00:56:03;;;;;;;3.40;2.10;;;;;;;12.05;66.05;100199.38;5073266;28;20028;-55
2022/08/07 00:58:28;;;;;;;3.47;2.10;;;;;;;11.84;67.20;100187.22;5074211;28;20032;-55
2022/08/07 01:00:54;;;;;;;3.08;1.70;;;;;;;11.91;65.81;100184.50;5074171;28;20024;-55
2022/08/07 01:03:19;;;;;;;2.78;1.90;;;;;;;11.97;65.78;100183.56;5075690;28;20021;-55
2022/08/07 01:05:44;;;;;;;3.10;1.80;;;;;;;12.12;64.25;100180.47;5073041;28;20066;-54
2022/08/07 01:08:10;;;;;;;3.60;1.90;;;;;;;12.15;66.04;100186.19;5073093;28;20082;-53
2022/08/07 01:10:37;;;;;;;4.07;2.10;;;;;;;12.18;68.31;100185.75;5056161;28;20031;-54
2022/08/07 01:13:03;;;;;;;4.38;2.25;;;;;;;12.11;68.19;100176.97;5072820;28;20025;-54
2022/08/07 01:15:28;;;;;;;3.42;2.30;;;;;;;11.91;68.53;100184.50;5077394;28;20047;-56
2022/08/07 01:17:53;;;;;;;5.05;1.90;;;;;;;11.87;68.30;100184.94;5072540;28;20036;-55
2022/08/07 01:20:21;;;;;;;4.75;2.08;;;;;;;12.00;67.64;100175.84;5072618;28;20036;-55
2022/08/07 01:22:46;;;;;;;3.28;1.80;;;;;;;12.00;66.83;100180.41;5074254;28;20032;-56
2022/08/07 01:25:12;;;;;;;3.60;1.70;;;;;;;12.33;64.85;100171.88;5073960;28;20032;-54
2022/08/07 01:27:40;;;;;;;2.63;1.60;;;;;;;12.27;65.41;100181.66;5072630;28;20425;-55
2022/08/07 01:30:06;;;;;;;3.97;1.92;;;;;;;12.18;66.54;100180.38;5072531;28;20024;-54
2022/08/07 01:32:31;;;;;;;3.03;1.70;;;;;;;12.41;66.48;100178.78;5074194;28;20478;-55
2022/08/07 01:34:57;;;;;;;3.53;1.92;;;;;;;12.56;63.87;100175.66;5073023;28;20478;-55
2022/08/07 01:37:22;;;;;;;2.03;1.65;;;;;;;12.38;67.95;100168.47;5073771;28;20032;-55
2022/08/07 01:39:48;;;;;;;3.90;1.80;;;;;;;12.12;69.72;100175.91;5072225;28;20028;-55
2022/08/07 01:42:13;;;;;;;5.03;1.70;;;;;;;12.39;66.40;100170.13;5072630;28;20029;-54
2022/08/07 01:44:39;;;;;;;3.05;1.83;;;;;;;12.13;66.21;100176.72;5073459;28;20414;-55
2022/08/07 01:47:05;;;;;;;3.20;1.80;;;;;;;12.01;66.40;100179.38;5072323;28;20371;-53
2022/08/07 01:49:30;;;;;;;4.78;2.35;;;;;;;11.97;69.18;100178.19;5071430;28;20028;-56
2022/08/07 01:51:56;;;;;;;5.30;1.80;;;;;;;11.97;66.65;100181.69;5072731;28;20025;-57
2022/08/07 01:54:22;;;;;;;2.92;1.70;;;;;;;11.89;67.95;100178.53;5063562;28;20475;-57
2022/08/07 01:57:09;;;;;;;3.00;1.88;;;;;;;11.81;67.69;100176.94;5073688;28;20081;-56
2022/08/07 01:59:44;;;;;;;3.20;2.20;;;;;;;11.66;70.56;100178.16;5073163;28;20086;-56
2022/08/07 02:02:17;;;;;;;3.47;2.30;;;;;;;11.64;71.60;100174.06;5073079;28;20024;-55
2022/08/07 02:04:54;;;;;;;4.60;2.25;;;;;;;11.33;72.33;100180.41;5054899;28;20049;-57
2022/08/07 02:07:19;;;;;;;2.78;1.90;;;;;;;11.27;70.87;100181.31;5069541;28;20035;-56
2022/08/07 02:09:45;;;;;;;6.38;1.90;;;;;;;11.73;67.43;100172.72;5072594;28;20024;-55
2022/08/07 02:12:16;;;;;;;2.75;1.75;;;;;;;11.91;66.18;100179.13;5072013;28;20033;-56
2022/08/07 02:14:46;;;;;;;7.03;1.95;;;;;;;11.92;65.85;100170.81;5073033;28;20051;-55
2022/08/07 02:17:12;;;;;;;2.70;1.70;;;;;;;11.81;68.81;100180.44;5071925;28;20047;-56
2022/08/07 02:19:39;;;;;;;6.50;1.80;;;;;;;11.83;67.76;100175.69;5072076;28;20100;-56
2022/08/07 02:22:05;;;;;;;3.45;1.90;;;;;;;11.59;68.60;100182.78;5052879;28;20035;-55
2022/08/07 02:24:30;;;;;;;3.40;1.83;;;;;;;11.47;69.44;100179.22;5071595;28;20040;-57
2022/08/07 02:26:58;;;;;;;2.78;1.70;;;;;;;11.20;70.65;100178.69;5071554;28;20024;-56
2022/08/07 02:29:23;;;;;;;3.88;1.70;;;;;;;10.95;71.23;100171.53;5071454;28;20021;-56
2022/08/07 02:31:49;;;;;;;4.35;1.90;;;;;;;10.96;69.95;100167.81;5071216;28;20402;-56
2022/08/07 02:34:14;;;;;;;3.85;1.95;;;;;;;11.55;67.82;100170.03;5054194;28;20033;-56
2022/08/07 02:36:39;;;;;;;2.05;1.55;;;;;;;11.52;68.71;100165.13;5071454;28;20094;-57
2022/08/07 02:39:05;;;;;;;2.45;1.70;;;;;;;11.39;69.11;100166.94;5072823;28;20024;-56
2022/08/07 02:41:30;;;;;;;4.50;1.73;;;;;;;11.56;69.13;100166.31;5038416;28;20032;-55
2022/08/07 02:43:56;;;;;;;2.88;1.73;;;;;;;11.42;68.14;100161.09;5054675;28;20178;-55
2022/08/07 02:46:22;;;;;;;3.53;1.73;;;;;;;11.54;68.46;100171.09;5068964;28;20029;-55
2022/08/07 02:48:47;;;;;;;4.15;1.70;;;;;;;11.52;68.34;100167.81;5071714;28;20032;-56
2022/08/07 02:51:15;;;;;;;2.85;1.70;;;;;;;11.00;70.29;100155.59;5070972;28;20090;-58
2022/08/07 02:53:41;;;;;;;2.47;1.80;;;;;;;11.50;69.21;100161.84;5071257;28;20032;-56
2022/08/07 02:56:08;;;;;;;4.32;2.05;;;;;;;11.50;68.40;100156.47;5071110;28;20024;-56
2022/08/07 02:58:34;;;;;;;2.67;1.88;;;;;;;11.50;70.12;100162.66;5083257;28;20038;-57
2022/08/07 03:00:59;;;;;;;2.38;1.70;;;;;;;11.44;69.67;100153.66;5070922;28;20024;-56
2022/08/07 03:03:26;;;;;;;1.85;1.60;;;;;;;11.41;67.66;100159.47;5053393;28;20078;-56
2022/08/07 03:05:53;;;;;;;5.03;2.17;;;;;;;11.81;66.69;100153.59;5071171;28;20020;-56
2022/08/07 03:08:18;;;;;;;2.67;1.70;;;;;;;11.61;66.16;100153.84;5071916;28;20588;-56
2022/08/07 03:10:47;;;;;;;3.83;1.90;;;;;;;11.62;66.47;100154.66;5070787;28;20037;-54
2022/08/07 03:13:13;;;;;;;4.10;1.80;;;;;;;11.69;66.91;100144.66;5045658;28;20035;-55
2022/08/07 03:15:39;;;;;;;5.60;1.88;;;;;;;11.55;66.14;100151.25;5070792;28;20356;-53
2022/08/07 03:18:04;;;;;;;3.40;1.70;;;;;;;11.61;65.85;100153.03;5053851;28;20050;-55
2022/08/07 03:20:30;;;;;;;2.90;1.98;;;;;;;11.52;68.91;100152.50;5072287;28;20482;-56
2022/08/07 03:22:55;;;;;;;4.13;2.10;;;;;;;11.19;70.23;100147.56;5070685;28;20423;-55
2022/08/07 03:25:22;;;;;;;8.13;2.20;;;;;;;10.73;72.66;100148.84;5070893;28;20028;-55
2022/08/07 03:27:48;;;;;;;3.15;1.90;;;;;;;10.62;73.81;100138.88;5071174;28;20467;-55
2022/08/07 03:30:13;;;;;;;3.22;1.90;;;;;;;10.75;72.53;100144.09;5053789;28;20039;-55
2022/08/07 03:32:40;;;;;;;2.38;1.80;;;;;;;10.82;73.66;100142.16;5072463;28;20036;-56
2022/08/07 03:35:10;;;;;;;5.32;2.03;;;;;;;11.17;70.01;100141.59;5074239;28;20050;-55
2022/08/07 03:37:35;;;;;;;3.40;2.00;;;;;;;11.40;68.02;100136.34;5054266;28;20073;-56
2022/08/07 03:40:02;;;;;;;5.35;2.15;;;;;;;11.34;68.74;100136.44;5053439;28;20032;-56
2022/08/07 03:42:27;;;;;;;2.92;1.90;;;;;;;11.41;67.37;100143.38;5077874;28;20084;-55
2022/08/07 03:44:53;;;;;;;3.50;1.83;;;;;;;11.17;69.83;100136.22;5071392;28;20417;-56
2022/08/07 03:47:18;;;;;;;4.13;1.90;;;;;;;11.14;69.94;100137.50;5054162;28;20478;-56
2022/08/07 03:49:44;;;;;;;4.55;2.03;;;;;;;11.07;70.32;100135.94;5071280;28;20032;-56
2022/08/07 03:52:09;;;;;;;3.35;2.08;;;;;;;10.69;72.56;100129.72;5070382;28;20040;-56
2022/08/07 03:54:34;;;;;;;2.90;1.80;;;;;;;10.67;72.99;100136.34;5037247;28;20036;-56
2022/08/07 03:57:00;;;;;;;7.03;2.20;;;;;;;10.71;72.36;100134.88;5070504;28;20024;-56
2022/08/07 03:59:25;;;;;;;3.15;2.08;;;;;;;10.69;72.61;100134.25;5078727;28;20394;-55
2022/08/07 04:01:51;;;;;;;3.20;1.98;;;;;;;10.47;74.33;100134.66;5071914;28;20462;-56
2022/08/07 04:04:16;;;;;;;6.15;2.35;;;;;;;10.49;74.61;100134.44;5053119;28;20479;-56
2022/08/07 04:06:43;;;;;;;4.65;2.20;;;;;;;10.32;75.80;100140.34;5071777;28;20490;-56
2022/08/07 04:09:08;;;;;;;3.55;2.35;;;;;;;10.19;76.23;100139.59;5053773;28;20032;-57
2022/08/07 04:11:34;;;;;;;4.78;2.40;;;;;;;10.29;75.95;100139.97;5070346;28;20556;-56
2022/08/07 04:14:00;;;;;;;5.85;2.35;;;;;;;10.38;75.69;100137.81;5069977;28;20020;-55
2022/08/07 04:16:26;;;;;;;3.53;2.25;;;;;;;10.35;76.05;100137.22;5061605;28;20085;-56
2022/08/07 04:18:51;;;;;;;3.58;2.20;;;;;;;11.17;74.02;100152.31;5070795;28;20032;-56
2022/08/07 04:21:16;;;;;;;6.55;2.20;;;;;;;11.59;71.27;100149.75;5071383;28;20020;-56
2022/08/07 04:23:42;;;;;;;8.70;2.78;;;;;;;11.68;70.14;100148.38;5056841;28;20107;-55
2022/08/07 04:26:07;;;;;;;3.30;2.20;;;;;;;12.86;67.25;100151.34;5070376;28;20542;-56
2022/08/07 04:28:33;;;;;;;3.33;2.13;;;;;;;13.11;65.11;100157.28;5053157;28;20452;-56
2022/08/07 04:31:01;;;;;;;5.95;2.15;;;;;;;14.15;61.70;100153.66;5070268;28;20047;-55
2022/08/07 04:33:27;;;;;;;5.00;2.35;;;;;;;14.18;63.84;100149.66;5069499;28;20064;-56
2022/08/07 04:35:53;;;;;;;3.47;2.42;;;;;;;15.54;57.12;100160.00;5071116;28;20558;-56
2022/08/07 04:38:18;;;;;;;4.65;2.20;;;;;;;16.32;54.57;100161.63;5071153;28;20032;-56
2022/08/07 04:40:44;;;;;;;3.22;1.88;;;;;;;16.21;54.86;100159.91;5071110;28;20042;-56
2022/08/07 04:43:09;;;;;;;3.55;2.17;;;;;;;16.20;54.55;100163.66;5071687;28;20119;-56
2022/08/07 04:46:09;;;;;;;4.22;2.10;;;;;;;17.15;53.36;100169.28;5073783;28;20023;-56
2022/08/07 04:49:17;;;;;;;4.85;2.00;;;;;;;18.91;46.80;100173.69;5072829;28;20032;-55
2022/08/07 04:52:06;;;;;;;5.22;2.20;;;;;;;20.37;42.72;100176.28;5073857;28;20105;-56
2022/08/07 04:54:49;;;;;;;4.30;2.10;;;;;;;20.81;41.65;100184.34;5074551;28;20086;-56
2022/08/07 04:57:27;;;;;;;4.18;2.03;;;;;;;19.91;43.71;100191.00;5074340;28;20040;-56
2022/08/07 05:00:00;;;;;;;5.15;2.35;;;;;;;17.71;47.94;100183.03;5074244;28;20115;-56
2022/08/07 05:02:33;;;;;;;4.90;2.40;;;;;;;18.24;47.20;100186.44;5073147;28;20483;-56
2022/08/07 05:05:01;;;;;;;9.38;2.33;;;;;;;17.33;49.38;100176.94;5071018;28;20044;-56
2022/08/07 05:08:03;;;;;;;4.55;2.10;;;;;;;18.72;47.13;100187.00;5074333;28;20519;-56
2022/08/07 05:10:40;;;;;;;5.22;2.10;;;;;;;20.14;43.58;100199.56;5064840;28;20506;-57
2022/08/07 05:13:18;;;;;;;11.77;2.58;;;;;;;19.42;44.36;100190.91;5079807;28;20020;-56
2022/08/07 05:15:44;;;;;;;5.05;2.20;;;;;;;20.52;42.51;100195.22;5073050;28;20036;-56
2022/08/07 05:18:17;;;;;;;6.13;2.60;;;;;;;22.26;38.87;100195.16;5072432;28;20020;-57
2022/08/07 05:20:48;;;;;;;6.35;2.40;;;;;;;21.25;41.06;100194.25;5077343;28;20030;-55
2022/08/07 05:23:19;;;;;;;4.72;2.10;;;;;;;22.51;38.30;100194.72;5072912;28;20122;-56
2022/08/07 05:25:44;;;;;;;3.10;2.03;;;;;;;21.82;39.84;100199.06;5039642;28;20024;-56
2022/08/07 05:28:10;;;;;;;3.80;2.00;;;;;;;21.99;39.25;100196.63;5073767;28;20528;-56
2022/08/07 05:30:35;;;;;;;4.50;2.38;;;;;;;24.36;36.12;100204.75;5072544;28;20033;-56
2022/08/07 05:33:01;;;;;;;6.05;2.30;;;;;;;22.75;37.27;100200.06;5055273;28;20043;-56
2022/08/07 05:35:26;;;;;;;4.90;2.30;;;;;;;23.72;36.50;100210.28;5067458;28;20352;-56
2022/08/07 05:37:52;;;;;;;4.35;2.45;;;;;;;23.02;36.76;100199.34;5075703;28;20024;-56
2022/08/07 05:40:17;;;;;;;5.30;2.40;;;;;;;23.95;36.25;100205.72;5072369;28;20119;-54
2022/08/07 05:42:44;;;;;;;5.40;2.50;;;;;;;23.33;36.01;100203.41;5055619;28;20091;-56
2022/08/07 05:45:09;;;;;;;4.05;2.28;;;;;;;23.26;36.34;100201.06;5072093;28;20029;-56
2022/08/07 05:47:35;;;;;;;4.68;2.35;;;;;;;22.75;36.57;100207.47;5072168;28;20017;-55
2022/08/07 05:50:00;;;;;;;3.50;2.00;;;;;;;22.22;37.74;100205.06;5061768;28;20037;-56
2022/08/07 05:52:26;;;;;;;4.40;2.13;;;;;;;23.35;37.80;100212.94;5072047;28;20025;-56
2022/08/07 05:54:51;;;;;;;5.53;2.40;;;;;;;23.66;36.79;100209.56;5071574;28;20024;-56
2022/08/07 05:57:16;;;;;;;5.75;2.20;;;;;;;23.93;35.44;100210.69;5073902;28;20666;-56
2022/08/07 05:59:42;;;;;;;4.38;2.13;;;;;;;21.80;38.67;100220.34;5074787;28;20078;-56
2022/08/07 06:02:07;;;;;;;4.97;2.50;;;;;;;22.23;37.66;100221.13;5075817;28;20414;-56
2022/08/07 06:04:36;;;;;;;4.75;2.25;;;;;;;23.44;36.59;100216.59;5054853;28;20505;-56
2022/08/07 06:07:04;;;;;;;4.43;2.63;;;;;;;23.32;37.24;100219.03;5073370;28;20021;-56
2022/08/07 06:09:31;;;;;;;5.68;2.20;;;;;;;24.08;35.99;100224.03;5073082;28;20025;-56
2022/08/07 06:11:57;;;;;;;6.97;2.35;;;;;;;24.35;36.10;100217.66;5071949;28;20032;-56
2022/08/07 06:14:22;;;;;;;4.72;2.20;;;;;;;24.23;35.46;100223.66;5072969;28;20025;-56
2022/08/07 06:16:47;;;;;;;7.10;2.53;;;;;;;24.83;34.17;100227.19;5072825;28;20025;-56
2022/08/07 06:19:13;;;;;;;5.57;2.28;;;;;;;25.44;33.86;100231.06;5072337;28;20051;-56
2022/08/07 06:21:38;;;;;;;7.90;2.47;;;;;;;25.01;34.50;100234.41;5073357;28;20027;-56
2022/08/07 06:24:04;;;;;;;5.10;2.40;;;;;;;25.93;33.58;100236.53;5071849;28;20466;-56
2022/08/07 06:26:29;;;;;;;5.25;2.30;;;;;;;25.12;33.89;100229.44;5071563;28;20032;-57
2022/08/07 06:28:56;;;;;;;5.50;2.55;;;;;;;25.19;34.54;100224.34;5072737;28;20031;-57
2022/08/07 06:31:22;;;;;;;6.90;2.60;;;;;;;25.64;33.31;100226.13;5072749;28;20017;-57
2022/08/07 06:33:47;;;;;;;7.88;2.60;;;;;;;25.31;33.71;100229.22;5071081;28;20543;-56
2022/08/07 06:36:13;;;;;;;6.13;2.55;;;;;;;25.23;33.04;100224.50;5071448;28;20031;-56
2022/08/07 06:38:39;;;;;;;4.72;2.50;;;;;;;24.06;34.70;100218.03;5071317;28;20333;-57
2022/08/07 06:41:10;;;;;;;6.75;2.78;;;;;;;25.46;33.81;100217.84;5072623;28;20028;-56
2022/08/07 06:43:36;;;;;;;4.05;2.45;;;;;;;25.94;33.09;100216.19;5072903;28;20028;-56
2022/08/07 06:46:02;;;;;;;7.53;2.50;;;;;;;25.75;33.97;100213.69;5069071;28;20107;-57
2022/08/07 06:48:27;;;;;;;7.65;2.30;;;;;;;26.41;32.50;100208.94;5062016;28;20052;-57
2022/08/07 06:50:53;;;;;;;5.70;2.35;;;;;;;26.05;33.64;100201.00;5073333;28;20062;-56
2022/08/07 06:53:20;;;;;;;8.05;2.78;;;;;;;27.61;31.38;100205.34;5054348;28;20028;-56
2022/08/07 06:55:45;;;;;;;5.53;2.40;;;;;;;26.87;31.60;100204.66;5054358;28;20115;-56
2022/08/07 06:58:11;;;;;;;5.82;2.58;;;;;;;25.18;33.34;100207.06;5075254;28;20032;-57
2022/08/07 07:00:38;;;;;;;4.40;2.38;;;;;;;25.59;35.16;100211.41;5054283;28;20036;-56
2022/08/07 07:03:04;;;;;;;5.90;2.40;;;;;;;27.74;31.33;100198.75;5070639;28;20029;-55
2022/08/07 07:05:29;;;;;;;7.20;2.30;;;;;;;29.24;28.87;100213.63;5056410;28;20074;-55
2022/08/07 07:07:55;;;;;;;5.30;2.47;;;;;;;28.84;29.15;100203.19;5060269;28;20021;-56
2022/08/07 07:10:32;;;;;;;7.68;2.45;;;;;;;27.79;31.67;100206.03;5072083;28;20066;-56
2022/08/07 07:13:13;;;;;;;7.45;2.33;;;;;;;29.45;29.17;100207.97;5071842;28;20356;-56
2022/08/07 07:15:41;;;;;;;5.78;2.30;;;;;;;28.33;29.76;100205.28;5071131;28;20032;-57
2022/08/07 07:18:16;;;;;;;7.30;2.40;;;;;;;28.38;30.04;100202.31;5071599;28;20116;-56
2022/08/07 07:21:00;;;;;;;4.22;2.20;;;;;;;27.58;30.80;100200.47;5071107;28;20398;-56
2022/08/07 07:23:26;;;;;;;4.57;2.17;;;;;;;27.73;30.67;100197.16;5070995;28;20571;-55
2022/08/07 07:25:53;;;;;;;5.88;2.15;;;;;;;26.54;32.14;100200.84;5072000;28;20028;-56
2022/08/07 07:28:24;;;;;;;5.88;2.60;;;;;;;27.95;30.83;100203.50;5070670;28;20134;-56
2022/08/07 07:31:03;;;;;;;4.95;1.95;;;;;;;28.79;29.14;100203.41;5070893;28;20041;-56
2022/08/07 07:33:29;;;;;;;2.97;1.98;;;;;;;29.45;27.59;100203.28;5071453;28;20114;-56
2022/08/07 07:35:54;;;;;;;5.90;1.90;;;;;;;29.90;27.34;100209.78;5070616;28;20082;-56
2022/08/07 07:38:21;;;;;;;4.35;2.10;;;;;;;30.04;27.54;100201.13;5070423;28;20036;-55
2022/08/07 07:40:47;;;;;;;4.68;1.95;;;;;;;27.42;29.70;100207.69;5046828;28;20336;-56
2022/08/07 07:43:14;;;;;;;3.67;1.77;;;;;;;27.58;30.09;100194.97;5053866;28;20044;-57
2022/08/07 07:45:39;;;;;;;5.80;2.10;;;;;;;26.21;32.04;100198.59;5053911;28;20119;-56
2022/08/07 07:48:05;;;;;;;3.30;1.98;;;;;;;27.84;30.02;100196.78;5071471;28;20138;-56
2022/08/07 07:50:30;;;;;;;3.45;1.80;;;;;;;28.44;29.28;100189.16;5053818;28;20069;-56
2022/08/07 07:52:56;;;;;;;5.53;2.00;;;;;;;27.65;29.09;100194.44;5070809;28;20116;-55
2022/08/07 07:55:22;;;;;;;4.00;1.67;;;;;;;28.01;28.44;100191.16;5071927;28;20501;-55
2022/08/07 07:57:48;;;;;;;4.90;1.70;;;;;;;23.24;34.18;100189.66;5070544;28;20119;-55
2022/08/07 08:00:14;;;;;;;3.70;1.92;;;;;;;23.96;34.14;100183.47;5057398;28;20028;-55
2022/08/07 08:02:42;;;;;;;4.13;1.70;;;;;;;25.45;32.65;100194.25;5074613;28;20028;-57
2022/08/07 08:05:09;;;;;;;3.58;2.08;;;;;;;24.93;32.06;100183.84;5077167;28;20071;-56
2022/08/07 08:07:35;;;;;;;5.43;1.88;;;;;;;23.81;33.87;100183.84;5070613;28;20078;-55
2022/08/07 08:10:01;;;;;;;5.55;2.00;;;;;;;24.44;34.00;100182.91;5071573;28;20151;-56
2022/08/07 08:12:26;;;;;;;6.80;2.05;;;;;;;25.32;31.62;100179.53;5070218;28;20028;-55
2022/08/07 08:14:52;;;;;;;2.70;1.70;;;;;;;24.67;32.71;100180.97;5070267;28;20021;-58
2022/08/07 08:17:17;;;;;;;4.15;1.70;;;;;;;25.03;32.53;100182.78;5070942;28;20032;-54
2022/08/07 08:19:43;;;;;;;3.97;1.95;;;;;;;24.29;33.61;100181.34;5057803;28;20039;-54
2022/08/07 08:27:38;;;;;;;4.93;2.33;;;;;;;24.52;33.23;100173.16;5071491;28;20218;-56
2022/08/07 08:30:11;;;;;;;4.20;2.10;;;;;;;23.46;35.17;100165.13;5054609;28;20032;-54
2022/08/07 08:32:43;;;;;;;4.18;2.10;;;;;;;23.01;35.81;100170.41;5078587;28;20111;-55
2022/08/07 08:35:11;;;;;;;8.55;2.78;;;;;;;22.45;37.11;100168.63;5062283;28;20031;-54
2022/08/07 08:37:38;;;;;;;3.92;2.22;;;;;;;23.67;34.66;100161.94;5059295;28;20368;-54
2022/08/07 08:40:09;;;;;;;4.75;2.10;;;;;;;23.73;34.93;100165.41;5070569;28;20039;-55
2022/08/07 08:42:48;;;;;;;3.10;1.85;;;;;;;23.76;34.93;100157.38;5071202;28;20051;-55
2022/08/07 08:45:52;;;;;;;7.28;2.00;;;;;;;22.06;36.92;100153.38;5072269;28;20394;-54
2022/08/07 08:48:52;;;;;;;5.60;2.28;;;;;;;23.54;35.65;100154.56;5071363;28;20106;-53
2022/08/07 08:51:36;;;;;;;;;;;;;;;23.83;35.21;100152.28;5071553;28;20115;-53
2022/08/07 08:54:25;;;;;;;3.45;1.60;;;;;;;24.03;34.58;100152.94;5072090;28;19974;-52
2022/08/07 08:56:52;;;;;;;6.00;1.90;;;;;;;23.74;35.50;100147.84;5081522;28;20036;-55
2022/08/07 08:59:52;;;;;;;5.35;2.00;;;;;;;24.77;33.94;100148.97;5053768;28;20047;-54
2022/08/07 09:02:39;;;;;;;4.55;2.10;;;;;;;23.54;34.69;100140.88;5045410;28;20037;-55
2022/08/07 09:05:23;;;;;;;5.38;1.95;;;;;;;23.86;34.40;100135.28;5069953;28;20365;-55
2022/08/07 09:08:18;;;;;;;3.35;1.90;;;;;;;25.07;34.29;100128.91;5071904;28;20025;-57
2022/08/07 09:10:46;;;;;;;7.80;1.85;;;;;;;24.67;34.02;100126.16;5085177;28;20074;-54
2022/08/07 09:13:32;;;;;;;6.97;2.03;;;;;;;25.25;32.91;100137.22;5079167;28;20036;-54
2022/08/07 09:16:16;;;;;;;10.40;2.10;;;;;;;23.85;34.66;100133.63;5072347;28;20035;-54
2022/08/07 09:18:53;;;;;;;5.50;1.90;;;;;;;24.91;33.68;100133.19;5078574;28;20028;-55
2022/08/07 09:21:34;;;;;;;3.00;1.60;;;;;;;24.33;34.53;100129.47;5079713;28;20043;-54
2022/08/07 09:24:08;;;;;;;4.38;1.77;;;;;;;24.14;34.53;100121.47;5068505;28;20021;-55
2022/08/07 09:26:44;;;;;;;4.43;1.88;;;;;;;23.53;35.24;100131.06;5073948;28;20027;-55
2022/08/07 09:29:23;;;;;;;5.22;2.60;;;;;;;23.76;34.87;100121.78;5071729;28;20361;-58
2022/08/07 09:32:10;;;;;;;2.60;1.77;;;;;;;24.18;34.73;100125.19;5072768;28;20047;-53
2022/08/07 09:34:48;;;;;;;2.40;1.50;;;;;;;24.38;34.03;100117.59;5056212;28;20490;-55
2022/08/07 09:37:27;;;;;;;5.40;1.75;;;;;;;24.86;33.93;100116.88;5074049;28;20039;-55
2022/08/07 09:40:34;;;;;;;5.28;1.90;;;;;;;25.03;33.69;100116.94;5057642;28;20028;-56
2022/08/07 09:43:02;;;;;;;1.92;1.48;;;;;;;23.53;34.77;100117.38;5070335;28;20483;-56
2022/08/07 09:45:51;;;;;;;2.75;1.70;;;;;;;23.87;34.65;100111.44;5073678;28;20024;-56
2022/08/07 09:48:55;;;;;;;5.75;2.03;;;;;;;23.88;34.89;100115.78;5073974;28;20028;-56
2022/08/07 09:51:27;;;;;;;6.75;2.08;;;;;;;25.36;33.32;100102.88;5068267;28;20037;-55
2022/08/07 09:53:55;;;;;;;3.95;1.90;;;;;;;25.49;32.62;100096.44;5073856;28;20029;-56
2022/08/07 09:56:41;;;;;;;3.17;1.63;;;;;;;25.56;32.49;100102.28;5072376;28;20095;-57
2022/08/07 09:59:28;;;;;;;2.83;1.77;;;;;;;24.31;33.58;100101.59;5081439;28;20032;-55
2022/08/07 10:02:18;;;;;;;3.85;1.80;;;;;;;24.03;34.34;100096.25;5073272;28;20397;-54
2022/08/07 10:05:11;;;;;;;4.85;1.75;;;;;;;24.60;33.70;100092.91;5081532;28;20485;-55
2022/08/07 10:07:43;;;;;;;4.10;1.70;;;;;;;24.61;34.12;100082.75;5080636;28;20029;-54
2022/08/07 10:10:40;;;;;;;2.63;1.67;;;;;;;24.28;33.99;100094.81;5075175;28;20024;-55
2022/08/07 10:13:17;;;;;;;2.33;1.55;;;;;;;25.47;32.90;100076.75;5083172;28;20024;-55
2022/08/07 10:16:01;;;;;;;3.38;1.80;;;;;;;24.46;33.78;100076.59;5055034;28;20123;-55
2022/08/07 10:18:35;;;;;;;3.80;1.80;;;;;;;26.05;31.96;100066.41;5072116;28;20482;-55
2022/08/07 10:21:22;;;;;;;6.32;1.77;;;;;;;25.67;32.89;100066.25;5071606;28;20132;-55
2022/08/07 10:23:50;;;;;;;2.45;1.55;;;;;;;24.97;32.76;100068.88;5072959;28;20032;-54
2022/08/07 10:26:43;;;;;;;3.67;1.70;;;;;;;24.99;32.77;100058.41;5072880;28;20085;-56
2022/08/07 10:29:30;;;;;;;4.22;1.73;;;;;;;24.26;33.82;100066.09;5073086;28;20028;-55
2022/08/07 10:32:46;;;;;;;3.65;1.73;;;;;;;25.65;32.75;100055.59;5072653;28;20036;-54
2022/08/07 10:35:32;;;;;;;3.47;1.70;;;;;;;24.64;33.60;100054.75;5030161;28;20116;-54
2022/08/07 10:38:34;;;;;;;2.03;1.60;;;;;;;24.99;32.89;100050.19;5070867;28;20037;-53
2022/08/07 10:41:10;;;;;;;3.20;1.80;;;;;;;24.44;33.59;100048.66;5072236;28;20032;-55
2022/08/07 10:43:43;;;;;;;4.20;1.70;;;;;;;25.08;32.12;100045.50;5070974;28;20036;-55
2022/08/07 10:46:14;;;;;;;1.92;1.60;;;;;;;25.44;32.01;100044.47;5071145;28;20028;-56
2022/08/07 10:48:47;;;;;;;3.00;1.67;;;;;;;24.81;32.45;100045.75;5070700;28;20115;-55
2022/08/07 10:51:34;;;;;;;2.50;1.50;;;;;;;25.49;31.96;100038.81;5071062;28;20379;-55
2022/08/07 10:54:07;;;;;;;4.45;1.70;;;;;;;24.16;33.12;100039.78;5072259;28;20060;-55
2022/08/07 10:56:49;;;;;;;2.08;1.42;;;;;;;24.33;32.27;100030.88;5071126;28;20179;-55
2022/08/07 10:59:51;;;;;;;5.13;1.80;;;;;;;24.69;32.82;100027.19;5076970;28;20540;-55
2022/08/07 11:02:36;;;;;;;2.90;1.55;;;;;;;25.05;31.50;100020.66;5079128;28;20033;-54
2022/08/07 11:05:25;;;;;;;3.40;1.60;;;;;;;24.26;33.72;100023.13;5071324;28;20158;-55
2022/08/07 11:08:00;;;;;;;5.85;1.80;;;;;;;24.73;32.80;100026.22;5072579;28;20432;-53
2022/08/07 11:10:30;;;;;;;2.85;1.60;;;;;;;23.75;33.88;100027.13;5076323;28;20562;-54
2022/08/07 11:13:17;;;;;;;2.67;2.00;;;;;;;24.63;33.83;100020.22;5070709;28;20533;-54
2022/08/07 11:15:42;;;;;;;15.60;8.13;;;;;;;25.76;31.72;100006.66;5064821;28;20031;-55
2022/08/07 11:18:34;;;;;;;2.70;1.70;;;;;;;25.78;30.78;100004.41;5053472;28;20108;-55
2022/08/07 11:21:21;;;;;;;7.28;2.05;;;;;;;26.72;30.53;100004.47;5081281;28;20035;-56
2022/08/07 11:24:00;;;;;;;6.20;3.33;;;;;;;27.03;29.80;99997.78;5055608;28;20067;-54
2022/08/07 11:26:41;;;;;;;5.50;1.45;;;;;;;25.45;31.42;100007.66;5070806;28;20040;-53
2022/08/07 11:29:18;;;;;;;3.05;1.60;;;;;;;25.42;31.20;100000.06;5070739;28;20028;-54
2022/08/07 11:32:25;;;;;;;2.67;1.65;;;;;;;25.63;31.55;99996.66;5069806;28;20074;-54
2022/08/07 11:35:03;;;;;;;3.33;1.70;;;;;;;26.06;30.18;99988.41;5059824;28;20044;-53
2022/08/07 11:37:45;;;;;;;3.03;1.60;;;;;;;26.36;29.98;99981.00;5053886;28;20036;-54
2022/08/07 11:40:35;;;;;;;2.78;1.40;;;;;;;26.68;30.17;99979.59;5071913;28;20173;-54
2022/08/07 11:43:03;;;;;;;;;;;;;;;25.58;30.33;99984.72;5072063;28;20032;-54
2022/08/07 11:46:06;;;;;;;2.85;1.50;;;;;;;25.32;31.63;99975.72;5071548;28;19917;-56
2022/08/07 11:49:06;;;;;;;3.45;1.50;;;;;;;25.19;30.91;99980.22;5071289;28;20482;-54
2022/08/07 11:51:42;;;;;;;4.13;1.58;;;;;;;25.64;31.81;99968.09;5070040;28;20500;-55